createdAt,value
2022-08-09T00:00:05.933Z,62.79
2022-08-09T00:01:42.950Z,63.64
2022-08-09T00:02:54.719Z,62.46
2022-08-09T00:04:05.589Z,61.09
2022-08-09T00:06:18.689Z,59.20
2022-08-09T00:06:40.263Z,56.70
2022-08-09T00:07:46.001Z,56.06
2022-08-09T00:08:51.804Z,56.26
2022-08-09T00:09:53.967Z,56.85
2022-08-09T00:10:55.640Z,57.52
2022-08-09T00:12:03.655Z,58.16
2022-08-09T00:13:16.793Z,58.78
2022-08-09T00:14:22.085Z,59.45
2022-08-09T00:15:59.317Z,59.97
2022-08-09T00:17:00.431Z,60.43
2022-08-09T00:18:05.297Z,60.84
2022-08-09T00:19:13.447Z,61.26
2022-08-09T00:20:21.198Z,61.69
2022-08-09T00:21:23.729Z,62.06
2022-08-09T00:22:35.130Z,62.25
2022-08-09T00:23:54.572Z,62.41
2022-08-09T00:25:00.089Z,63.37
2022-08-09T00:26:07.073Z,63.81
2022-08-09T00:27:08.781Z,62.89
2022-08-09T00:28:10.457Z,61.57
2022-08-09T00:29:39.287Z,60.11
2022-08-09T00:30:35.052Z,57.68
2022-08-09T00:31:59.630Z,56.21
2022-08-09T00:32:58.549Z,55.93
2022-08-09T00:34:00.348Z,56.35
2022-08-09T00:35:04.687Z,56.81
2022-08-09T00:36:06.479Z,57.42
2022-08-09T00:37:10.086Z,58.03
2022-08-09T00:38:13.799Z,58.51
2022-08-09T00:40:01.894Z,58.95
2022-08-09T00:40:40.542Z,59.39
2022-08-09T00:44:13.636Z,60.04
2022-08-09T00:44:16.317Z,59.76
2022-08-09T00:44:38.424Z,60.32
2022-08-09T00:45:50.405Z,60.61
2022-08-09T00:47:05.676Z,60.94
2022-08-09T00:48:07.628Z,61.19
2022-08-09T00:49:17.158Z,61.44
2022-08-09T00:50:22.932Z,61.60
2022-08-09T00:51:25.196Z,61.67
2022-08-09T00:52:30.843Z,61.73
2022-08-09T00:53:32.869Z,61.82
2022-08-09T00:54:38.151Z,62.00
2022-08-09T00:56:04.987Z,62.24
2022-08-09T00:57:10.131Z,62.48
2022-08-09T00:58:14.798Z,63.30
2022-08-09T00:59:40.729Z,63.35
2022-08-09T01:00:45.772Z,61.67
2022-08-09T01:01:50.429Z,60.21
2022-08-09T01:03:16.736Z,58.42
2022-08-09T01:04:37.664Z,56.07
2022-08-09T01:06:13.884Z,55.71
2022-08-09T01:07:38.089Z,56.22
2022-08-09T01:09:15.684Z,56.80
2022-08-09T01:10:25.965Z,57.57
2022-08-09T01:11:55.477Z,58.01
2022-08-09T01:13:13.586Z,58.45
2022-08-09T01:14:26.493Z,58.95
2022-08-09T01:15:40.819Z,59.46
2022-08-09T01:16:47.415Z,60.02
2022-08-09T01:17:58.953Z,60.29
2022-08-09T01:19:17.242Z,60.65
2022-08-09T01:21:13.482Z,60.96
2022-08-09T01:22:24.193Z,61.20
2022-08-09T01:24:07.406Z,61.44
2022-08-09T01:25:48.871Z,61.82
2022-08-09T01:26:54.966Z,62.51
2022-08-09T01:27:59.694Z,63.39
2022-08-09T01:29:04.472Z,63.80
2022-08-09T01:30:28.277Z,63.02
2022-08-09T01:32:29.899Z,61.41
2022-08-09T01:33:01.226Z,59.24
2022-08-09T01:34:06.524Z,57.06
2022-08-09T01:35:37.272Z,56.07
2022-08-09T01:36:43.410Z,56.16
2022-08-09T01:38:08.023Z,56.83
2022-08-09T01:39:12.402Z,57.88
2022-08-09T01:40:23.330Z,58.58
2022-08-09T01:41:35.673Z,59.40
2022-08-09T01:42:40.890Z,60.07
2022-08-09T01:43:51.983Z,60.45
2022-08-09T01:44:56.674Z,60.85
2022-08-09T01:46:02.484Z,61.22
2022-08-09T01:47:06.820Z,61.56
2022-08-09T01:48:16.482Z,62.19
2022-08-09T01:49:24.187Z,62.72
2022-08-09T01:50:30.066Z,63.76
2022-08-09T01:51:44.664Z,63.45
2022-08-09T01:53:00.107Z,62.30
2022-08-09T01:54:05.419Z,60.80
2022-08-09T01:55:11.147Z,59.39
2022-08-09T01:56:15.483Z,57.33
2022-08-09T01:57:40.327Z,56.06
2022-08-09T01:58:51.514Z,56.36
2022-08-09T01:59:59.869Z,56.93
2022-08-09T02:01:05.172Z,57.66
2022-08-09T02:02:13.492Z,58.50
2022-08-09T02:03:18.954Z,58.98
2022-08-09T02:04:26.908Z,59.51
2022-08-09T02:05:38.145Z,59.86
2022-08-09T02:07:17.957Z,60.76
2022-08-09T02:08:58.676Z,61.33
2022-08-09T02:10:11.027Z,61.69
2022-08-09T02:11:17.069Z,61.87
2022-08-09T02:12:22.528Z,61.87
2022-08-09T02:13:37.448Z,61.97
2022-08-09T02:14:44.934Z,62.32
2022-08-09T02:15:51.465Z,62.60
2022-08-09T02:17:09.004Z,63.46
2022-08-09T02:18:22.998Z,63.07
2022-08-09T02:19:38.606Z,61.87
2022-08-09T02:20:51.346Z,60.19
2022-08-09T02:21:58.885Z,58.42
2022-08-09T02:23:13.053Z,56.61
2022-08-09T02:24:26.232Z,56.28
2022-08-09T02:25:42.318Z,56.72
2022-08-09T02:26:51.682Z,57.37
2022-08-09T02:28:09.875Z,58.01
2022-08-09T02:29:23.541Z,58.87
2022-08-09T02:30:28.270Z,59.40
2022-08-09T02:31:34.018Z,59.69
2022-08-09T02:32:44.740Z,60.19
2022-08-09T02:34:06.263Z,60.53
2022-08-09T02:36:01.533Z,60.95
2022-08-09T02:36:52.671Z,61.30
2022-08-09T02:38:00.533Z,61.35
2022-08-09T02:39:19.817Z,61.47
2022-08-09T02:40:27.110Z,61.73
2022-08-09T02:41:44.756Z,61.95
2022-08-09T02:42:50.985Z,62.55
2022-08-09T02:43:59.739Z,63.66
2022-08-09T02:45:09.446Z,63.69
2022-08-09T02:46:16.022Z,62.42
2022-08-09T02:47:22.323Z,60.72
2022-08-09T02:48:31.183Z,59.27
2022-08-09T02:49:41.404Z,57.02
2022-08-09T02:50:56.294Z,55.86
2022-08-09T02:52:03.750Z,56.01
2022-08-09T02:53:26.367Z,56.49
2022-08-09T02:54:30.894Z,57.23
2022-08-09T02:55:46.097Z,57.82
2022-08-09T02:56:59.194Z,58.50
2022-08-09T02:58:35.470Z,59.19
2022-08-09T02:59:37.478Z,59.89
2022-08-09T03:00:57.692Z,60.25
2022-08-09T03:02:06.224Z,60.78
2022-08-09T03:03:10.994Z,61.05
2022-08-09T03:04:19.149Z,61.48
2022-08-09T03:05:23.134Z,61.87
2022-08-09T03:06:27.860Z,62.22
2022-08-09T03:07:32.708Z,62.46
2022-08-09T03:08:38.082Z,63.34
2022-08-09T03:09:43.316Z,63.93
2022-08-09T03:10:58.116Z,63.06
2022-08-09T03:12:10.585Z,61.68
2022-08-09T03:13:15.954Z,60.12
2022-08-09T03:14:21.899Z,58.50
2022-08-09T03:16:04.167Z,56.55
2022-08-09T03:16:54.398Z,56.27
2022-08-09T03:17:58.986Z,56.72
2022-08-09T03:19:02.734Z,57.44
2022-08-09T03:20:11.128Z,58.14
2022-08-09T03:21:17.681Z,58.88
2022-08-09T03:22:31.077Z,59.60
2022-08-09T03:23:32.993Z,60.18
2022-08-09T03:24:42.359Z,60.58
2022-08-09T03:25:59.237Z,61.20
2022-08-09T03:27:09.426Z,61.76
2022-08-09T03:28:14.801Z,62.17
2022-08-09T03:29:22.648Z,62.53
2022-08-09T03:30:33.230Z,63.55
2022-08-09T03:31:42.701Z,63.62
2022-08-09T03:33:01.915Z,62.30
2022-08-09T03:34:15.021Z,60.51
2022-08-09T03:35:24.904Z,59.14
2022-08-09T03:36:39.564Z,56.91
2022-08-09T03:37:55.673Z,56.39
2022-08-09T03:39:00.244Z,56.79
2022-08-09T03:40:02.339Z,57.41
2022-08-09T03:41:06.758Z,58.11
2022-08-09T03:42:08.510Z,58.74
2022-08-09T03:43:11.474Z,59.36
2022-08-09T03:44:15.483Z,59.99
2022-08-09T03:45:17.466Z,60.56
2022-08-09T03:46:39.431Z,61.05
2022-08-09T03:47:46.283Z,61.55
2022-08-09T03:48:54.948Z,61.95
2022-08-09T03:49:59.048Z,62.23
2022-08-09T03:51:02.709Z,62.91
2022-08-09T03:52:07.278Z,63.92
2022-08-09T03:53:10.901Z,63.89
2022-08-09T03:54:14.656Z,63.10
2022-08-09T03:55:19.382Z,61.58
2022-08-09T03:56:23.761Z,59.82
2022-08-09T03:57:26.737Z,58.35
2022-08-09T03:58:33.840Z,56.74
2022-08-09T03:59:52.837Z,56.52
2022-08-09T04:00:56.450Z,57.20
2022-08-09T04:01:59.834Z,57.92
2022-08-09T04:03:02.780Z,58.65
2022-08-09T04:04:10.156Z,59.40
2022-08-09T04:05:26.746Z,60.15
2022-08-09T04:06:29.919Z,61.00
2022-08-09T04:07:47.356Z,61.49
2022-08-09T04:08:53.727Z,62.07
2022-08-09T04:09:55.421Z,62.48
2022-08-09T04:11:01.593Z,63.56
2022-08-09T04:12:11.706Z,64.17
2022-08-09T04:13:13.883Z,63.26
2022-08-09T04:14:53.246Z,61.85
2022-08-09T04:16:18.235Z,60.27
2022-08-09T04:17:07.878Z,58.42
2022-08-09T04:18:17.838Z,56.92
2022-08-09T04:19:42.848Z,56.59
2022-08-09T04:20:42.733Z,57.29
2022-08-09T04:21:46.296Z,58.05
2022-08-09T04:22:50.257Z,58.85
2022-08-09T04:23:54.387Z,59.58
2022-08-09T04:25:00.023Z,60.21
2022-08-09T04:26:03.695Z,60.77
2022-08-09T04:27:05.396Z,61.28
2022-08-09T04:28:10.559Z,61.80
2022-08-09T04:29:15.789Z,62.27
2022-08-09T04:30:20.864Z,62.86
2022-08-09T04:31:37.353Z,64.00
2022-08-09T04:32:46.729Z,63.69
2022-08-09T04:33:52.013Z,62.38
2022-08-09T04:34:57.443Z,61.04
2022-08-09T04:35:59.423Z,59.84
2022-08-09T04:37:02.060Z,58.20
2022-08-09T04:38:03.914Z,56.87
2022-08-09T04:39:09.971Z,56.66
2022-08-09T04:40:19.338Z,57.26
2022-08-09T04:41:33.147Z,58.23
2022-08-09T04:42:35.878Z,59.05
2022-08-09T04:43:39.171Z,59.75
2022-08-09T04:44:57.284Z,60.57
2022-08-09T04:46:01.156Z,61.23
2022-08-09T04:47:04.359Z,61.83
2022-08-09T04:48:10.573Z,62.27
2022-08-09T04:49:14.784Z,62.79
2022-08-09T04:50:16.755Z,63.69
2022-08-09T04:51:26.184Z,63.42
2022-08-09T04:52:29.509Z,62.27
2022-08-09T04:53:32.490Z,60.89
2022-08-09T04:54:36.128Z,59.58
2022-08-09T04:55:39.527Z,57.91
2022-08-09T04:56:44.138Z,56.61
2022-08-09T04:57:54.277Z,56.49
2022-08-09T04:59:04.840Z,57.10
2022-08-09T05:00:10.369Z,57.81
2022-08-09T05:01:16.300Z,58.45
2022-08-09T05:02:20.377Z,59.14
2022-08-09T05:03:41.058Z,59.62
2022-08-09T05:04:45.153Z,60.37
2022-08-09T05:05:52.062Z,60.88
2022-08-09T05:07:06.131Z,61.45
2022-08-09T05:08:15.037Z,61.89
2022-08-09T05:09:17.166Z,62.10
2022-08-09T05:10:18.940Z,62.45
2022-08-09T05:11:20.672Z,63.21
2022-08-09T05:12:22.787Z,63.56
2022-08-09T05:13:24.455Z,62.80
2022-08-09T05:14:31.464Z,61.56
2022-08-09T05:15:39.209Z,60.24
2022-08-09T05:16:59.130Z,58.65
2022-08-09T05:18:37.955Z,56.61
2022-08-09T05:19:25.734Z,56.30
2022-08-09T05:20:29.771Z,56.73
2022-08-09T05:21:36.640Z,57.30
2022-08-09T05:23:55.528Z,58.04
2022-08-09T05:24:12.523Z,58.84
2022-08-09T05:25:16.538Z,59.29
2022-08-09T05:26:26.620Z,59.78
2022-08-09T05:27:46.342Z,60.39
2022-08-09T05:28:49.918Z,60.82
2022-08-09T05:29:53.956Z,61.13
2022-08-09T05:30:56.010Z,61.54
2022-08-09T05:32:00.271Z,61.84
2022-08-09T05:33:02.050Z,62.07
2022-08-09T05:34:04.211Z,62.25
2022-08-09T05:35:06.836Z,62.52
2022-08-09T05:36:09.384Z,63.36
2022-08-09T05:37:13.117Z,63.53
2022-08-09T05:38:21.674Z,62.65
2022-08-09T05:39:29.542Z,61.22
2022-08-09T05:40:32.634Z,59.67
2022-08-09T05:41:34.295Z,57.70
2022-08-09T05:42:36.299Z,56.27
2022-08-09T05:43:39.099Z,55.97
2022-08-09T05:44:47.695Z,56.27
2022-08-09T05:45:55.699Z,57.02
2022-08-09T05:46:58.869Z,57.82
2022-08-09T05:48:01.442Z,57.99
2022-08-09T05:49:03.237Z,58.25
2022-08-09T05:50:30.447Z,58.79
2022-08-09T05:51:42.996Z,59.46
2022-08-09T05:52:53.290Z,59.83
2022-08-09T05:53:57.892Z,60.37
2022-08-09T05:55:03.047Z,60.71
2022-08-09T05:56:09.236Z,61.06
2022-08-09T05:57:19.112Z,61.45
2022-08-09T05:58:21.053Z,61.70
2022-08-09T05:59:23.061Z,61.98
2022-08-09T06:00:33.849Z,62.34
2022-08-09T06:01:42.314Z,62.89
2022-08-09T06:02:46.624Z,63.77
2022-08-09T06:03:58.516Z,63.11
2022-08-09T06:05:01.056Z,61.71
2022-08-09T06:06:05.875Z,60.26
2022-08-09T06:07:09.331Z,58.63
2022-08-09T06:08:11.425Z,56.75
2022-08-09T06:09:40.580Z,55.93
2022-08-09T06:10:40.830Z,56.22
2022-08-09T06:11:57.659Z,56.98
2022-08-09T06:13:12.442Z,57.77
2022-08-09T06:14:20.354Z,58.40
2022-08-09T06:15:22.546Z,58.92
2022-08-09T06:16:29.540Z,59.26
2022-08-09T06:17:40.507Z,59.63
2022-08-09T06:18:42.434Z,59.95
2022-08-09T06:19:44.092Z,60.16
2022-08-09T06:20:49.849Z,60.40
2022-08-09T06:21:58.388Z,60.73
2022-08-09T06:23:00.658Z,61.03
2022-08-09T06:24:02.655Z,61.13
2022-08-09T06:25:08.634Z,61.30
2022-08-09T06:26:21.028Z,61.73
2022-08-09T06:27:23.115Z,62.19
2022-08-09T06:28:31.856Z,62.48
2022-08-09T06:29:33.777Z,63.29
2022-08-09T06:30:50.678Z,63.07
2022-08-09T06:32:09.037Z,61.97
2022-08-09T06:33:41.271Z,60.06
2022-08-09T06:34:36.149Z,57.51
2022-08-09T06:35:57.477Z,56.28
2022-08-09T06:37:00.400Z,56.27
2022-08-09T06:38:05.740Z,56.86
2022-08-09T06:39:11.674Z,57.62
2022-08-09T06:40:24.044Z,58.08
2022-08-09T06:42:07.762Z,58.61
2022-08-09T06:42:48.184Z,58.91
2022-08-09T06:43:49.825Z,59.17
2022-08-09T06:44:55.342Z,59.62
2022-08-09T06:46:06.520Z,60.04
2022-08-09T06:47:09.983Z,60.56
2022-08-09T06:48:12.181Z,60.87
2022-08-09T06:49:29.010Z,61.19
2022-08-09T06:50:40.102Z,61.52
2022-08-09T06:51:43.058Z,61.73
2022-08-09T06:52:48.477Z,61.79
2022-08-09T06:53:50.761Z,61.73
2022-08-09T06:54:54.973Z,61.81
2022-08-09T06:55:57.010Z,62.16
2022-08-09T06:56:58.786Z,62.68
2022-08-09T06:58:04.137Z,63.57
2022-08-09T07:00:50.316Z,62.08
2022-08-09T07:00:54.931Z,63.38
2022-08-09T07:01:54.471Z,60.40
2022-08-09T07:03:02.203Z,58.33
2022-08-09T07:04:07.859Z,56.48
2022-08-09T07:05:12.155Z,56.09
2022-08-09T07:06:13.997Z,56.26
2022-08-09T07:07:59.511Z,56.77
2022-08-09T07:08:39.655Z,57.63
2022-08-09T07:09:54.990Z,58.06
2022-08-09T07:11:06.739Z,58.43
2022-08-09T07:12:17.353Z,58.82
2022-08-09T07:13:29.372Z,59.44
2022-08-09T07:14:32.020Z,59.97
2022-08-09T07:16:34.986Z,60.41
2022-08-09T07:16:58.265Z,60.93
2022-08-09T07:18:02.386Z,61.24
2022-08-09T07:19:04.736Z,61.61
2022-08-09T07:20:08.117Z,61.86
2022-08-09T07:21:10.302Z,62.07
2022-08-09T07:22:13.013Z,62.14
2022-08-09T07:23:18.490Z,62.21
2022-08-09T07:24:21.694Z,62.35
2022-08-09T07:25:38.832Z,62.61
2022-08-09T07:26:44.650Z,63.71
2022-08-09T07:27:53.570Z,63.51
2022-08-09T07:29:12.044Z,62.13
2022-08-09T07:30:15.323Z,60.19
2022-08-09T07:31:19.966Z,58.30
2022-08-09T07:32:32.495Z,56.37
2022-08-09T07:33:52.457Z,55.60
2022-08-09T07:34:54.984Z,55.88
2022-08-09T07:35:56.623Z,56.40
2022-08-09T07:36:58.273Z,57.00
2022-08-09T07:38:04.546Z,57.62
2022-08-09T07:39:11.881Z,58.22
2022-08-09T07:40:26.990Z,58.92
2022-08-09T07:41:38.806Z,59.37
2022-08-09T07:42:58.934Z,59.70
2022-08-09T07:44:01.447Z,59.99
2022-08-09T07:45:15.051Z,60.11
2022-08-09T07:46:27.955Z,60.47
2022-08-09T07:47:30.071Z,60.64
2022-08-09T07:48:52.860Z,60.86
2022-08-09T07:50:07.602Z,61.08
2022-08-09T07:52:06.048Z,61.34
2022-08-09T07:52:31.988Z,61.54
2022-08-09T07:54:04.402Z,61.68
2022-08-09T07:54:57.562Z,61.80
2022-08-09T07:56:03.673Z,61.97
2022-08-09T07:57:11.839Z,62.20
2022-08-09T07:58:14.223Z,62.68
2022-08-09T07:59:25.589Z,63.66
2022-08-09T08:00:36.843Z,63.45
2022-08-09T08:01:58.087Z,62.12
2022-08-09T08:03:01.826Z,60.02
2022-08-09T08:04:10.601Z,58.13
2022-08-09T08:05:18.819Z,56.06
2022-08-09T08:06:21.228Z,55.27
2022-08-09T08:09:01.779Z,55.46
2022-08-09T08:09:03.681Z,56.42
2022-08-09T08:10:11.001Z,57.48
2022-08-09T08:12:10.857Z,58.52
2022-08-09T08:12:36.249Z,58.15
2022-08-09T08:13:45.225Z,58.29
2022-08-09T08:14:58.699Z,58.70
2022-08-09T08:16:01.630Z,58.74
2022-08-09T08:17:08.853Z,58.70
2022-08-09T08:18:14.317Z,58.78
2022-08-09T08:19:17.373Z,58.86
2022-08-09T08:20:29.096Z,59.11
2022-08-09T08:21:32.441Z,59.53
2022-08-09T08:22:34.466Z,60.06
2022-08-09T08:23:38.394Z,60.66
2022-08-09T08:24:47.238Z,60.92
2022-08-09T08:26:06.175Z,61.06
2022-08-09T08:27:16.723Z,60.83
2022-08-09T08:28:32.459Z,60.63
2022-08-09T08:29:39.480Z,60.89
2022-08-09T08:30:47.872Z,61.26
2022-08-09T08:32:04.556Z,61.29
2022-08-09T08:33:11.983Z,61.43
2022-08-09T08:34:25.321Z,61.52
2022-08-09T08:35:37.171Z,61.52
2022-08-09T08:36:49.018Z,61.41
2022-08-09T08:38:01.841Z,61.22
2022-08-09T08:39:08.397Z,61.13
2022-08-09T08:40:12.938Z,61.18
2022-08-09T08:41:14.698Z,61.32
2022-08-09T08:42:16.978Z,61.32
2022-08-09T08:43:18.787Z,61.26
2022-08-09T08:44:29.279Z,61.02
2022-08-09T08:45:51.534Z,61.08
2022-08-09T08:47:02.534Z,61.57
2022-08-09T08:48:10.170Z,61.70
2022-08-09T08:49:19.285Z,61.49
2022-08-09T08:50:21.192Z,60.82
2022-08-09T08:51:25.887Z,60.62
2022-08-09T08:52:58.956Z,60.70
2022-08-09T08:54:07.595Z,60.86
2022-08-09T08:55:15.071Z,61.23
2022-08-09T08:56:25.281Z,61.57
2022-08-09T08:57:30.254Z,61.14
2022-08-09T08:58:37.746Z,60.79
2022-08-09T08:59:46.585Z,60.92
2022-08-09T09:00:54.308Z,60.96
2022-08-09T09:01:59.896Z,60.79
2022-08-09T09:03:12.288Z,60.41
2022-08-09T09:04:37.815Z,60.04
2022-08-09T09:06:02.975Z,59.81
2022-08-09T09:07:09.997Z,59.68
2022-08-09T09:08:29.694Z,59.63
2022-08-09T09:09:58.273Z,59.66
2022-08-09T09:10:58.629Z,59.86
2022-08-09T09:12:01.298Z,60.00
2022-08-09T09:13:09.221Z,60.16
2022-08-09T09:14:19.832Z,60.26
2022-08-09T09:15:28.671Z,60.44
2022-08-09T09:16:34.329Z,60.52
2022-08-09T09:17:48.689Z,60.35
2022-08-09T09:19:10.802Z,60.52
2022-08-09T09:20:17.358Z,60.71
2022-08-09T09:21:26.187Z,60.59
2022-08-09T09:22:29.429Z,60.52
2022-08-09T09:23:49.761Z,60.27
2022-08-09T09:26:03.557Z,60.05
2022-08-09T09:26:23.906Z,60.19
2022-08-09T09:28:06.556Z,60.30
2022-08-09T09:29:04.192Z,60.16
2022-08-09T09:30:40.084Z,60.00
2022-08-09T09:32:01.840Z,59.98
2022-08-09T09:33:15.912Z,59.97
2022-08-09T09:34:18.993Z,60.13
2022-08-09T09:35:20.669Z,60.38
2022-08-09T09:36:22.892Z,60.57
2022-08-09T09:37:31.802Z,60.66
2022-08-09T09:38:47.127Z,60.55
2022-08-09T09:39:57.714Z,60.15
2022-08-09T09:41:02.383Z,59.82
2022-08-09T09:42:10.391Z,59.18
2022-08-09T09:43:20.712Z,59.02
2022-08-09T09:44:31.451Z,59.27
2022-08-09T09:47:16.533Z,58.51
2022-08-09T09:48:20.749Z,57.90
2022-08-09T09:49:50.083Z,57.90
2022-08-09T09:50:51.402Z,57.99
2022-08-09T09:52:06.467Z,57.93
2022-08-09T09:53:21.349Z,57.94
2022-08-09T09:54:23.597Z,57.66
2022-08-09T09:55:32.339Z,57.70
2022-08-09T09:56:38.395Z,57.46
2022-08-09T09:58:16.470Z,57.41
2022-08-09T09:59:35.357Z,57.79
2022-08-09T10:00:54.677Z,57.85
2022-08-09T10:02:01.051Z,57.89
2022-08-09T10:03:11.440Z,57.95
2022-08-09T10:04:23.027Z,58.12
2022-08-09T10:06:03.355Z,58.04
2022-08-09T10:06:54.731Z,57.39
2022-08-09T10:08:28.079Z,56.87
2022-08-09T10:09:28.061Z,57.34
2022-08-09T10:10:31.720Z,57.65
2022-08-09T10:11:59.978Z,57.71
2022-08-09T10:12:56.246Z,57.31
2022-08-09T10:13:58.261Z,57.12
2022-08-09T10:15:07.618Z,56.73
2022-08-09T10:16:56.852Z,56.50
2022-08-09T10:18:11.680Z,56.81
2022-08-09T10:19:13.436Z,56.91
2022-08-09T10:20:27.426Z,57.33
2022-08-09T10:21:36.133Z,57.00
2022-08-09T10:22:39.349Z,57.12
2022-08-09T10:23:43.449Z,57.56
2022-08-09T10:24:45.293Z,57.87
2022-08-09T10:26:06.798Z,57.96
2022-08-09T10:27:17.193Z,58.26
2022-08-09T10:28:27.525Z,58.18
2022-08-09T10:30:43.498Z,58.17
2022-08-09T10:32:38.548Z,58.04
2022-08-09T10:34:08.423Z,58.13
2022-08-09T10:35:04.076Z,58.25
2022-08-09T10:36:11.476Z,58.47
2022-08-09T10:37:14.033Z,58.14
2022-08-09T10:38:55.364Z,58.27
2022-08-09T10:39:49.471Z,58.35
2022-08-09T10:40:51.617Z,58.66
2022-08-09T10:41:53.631Z,58.79
2022-08-09T10:42:57.118Z,59.12
2022-08-09T10:44:01.451Z,59.04
2022-08-09T10:45:11.882Z,59.06
2022-08-09T10:47:00.604Z,58.47
2022-08-09T10:48:30.069Z,58.35
2022-08-09T10:49:51.290Z,58.10
2022-08-09T10:51:29.784Z,57.97
2022-08-09T10:53:04.398Z,57.12
2022-08-09T10:54:12.473Z,57.41
2022-08-09T10:55:28.674Z,57.45
2022-08-09T10:56:41.017Z,57.31
2022-08-09T10:57:43.712Z,56.95
2022-08-09T10:58:53.985Z,56.14
2022-08-09T10:59:58.548Z,56.05
2022-08-09T11:03:06.780Z,55.92
2022-08-09T11:03:11.917Z,56.12
2022-08-09T11:04:19.832Z,56.68
2022-08-09T11:05:31.131Z,57.76
2022-08-09T11:06:37.268Z,59.06
2022-08-09T11:07:57.509Z,59.30
2022-08-09T11:09:15.978Z,59.36
2022-08-09T11:10:54.841Z,57.94
2022-08-09T11:11:58.807Z,55.67
2022-08-09T11:13:49.234Z,55.17
2022-08-09T11:14:48.726Z,54.12
2022-08-09T11:15:51.027Z,52.14
2022-08-09T11:17:19.452Z,51.79
2022-08-09T11:18:44.897Z,52.57
2022-08-09T11:20:10.532Z,52.52
2022-08-09T11:21:56.872Z,52.53
2022-08-09T11:23:07.169Z,51.71
2022-08-09T11:24:13.221Z,50.81
2022-08-09T11:25:45.137Z,50.37
2022-08-09T11:26:54.674Z,49.50
2022-08-09T11:28:08.070Z,48.71
2022-08-09T11:30:05.097Z,48.19
2022-08-09T11:31:49.118Z,47.72
2022-08-09T11:33:04.317Z,47.94
2022-08-09T11:34:15.561Z,48.00
2022-08-09T11:35:35.182Z,48.58
2022-08-09T11:36:48.854Z,46.54
2022-08-09T11:37:53.151Z,45.70
2022-08-09T11:39:02.638Z,45.40
2022-08-09T11:40:08.493Z,45.44
2022-08-09T11:41:10.158Z,45.91
2022-08-09T11:42:42.150Z,44.37
2022-08-09T11:43:49.370Z,42.60
2022-08-09T11:44:55.294Z,43.07
2022-08-09T11:46:04.888Z,44.03
2022-08-09T11:47:11.021Z,43.90
2022-08-09T11:48:26.104Z,44.04
2022-08-09T11:50:56.053Z,44.40
2022-08-09T11:52:53.883Z,44.02
2022-08-09T11:53:44.067Z,42.79
2022-08-09T11:54:37.625Z,43.28
2022-08-09T11:55:53.981Z,42.82
2022-08-09T11:58:00.684Z,42.78
2022-08-09T11:59:05.291Z,43.26
2022-08-09T12:00:13.180Z,42.73
2022-08-09T12:02:01.158Z,42.44
2022-08-09T12:02:53.568Z,41.59
2022-08-09T12:04:20.573Z,41.78
2022-08-09T12:05:42.116Z,42.26
2022-08-09T12:06:56.377Z,42.66
2022-08-09T12:08:00.951Z,41.61
2022-08-09T12:09:19.465Z,41.30
2022-08-09T12:10:38.586Z,40.88
2022-08-09T12:12:02.086Z,41.68
2022-08-09T12:14:07.942Z,41.28
2022-08-09T12:14:36.979Z,38.92
2022-08-09T12:15:50.280Z,39.55
2022-08-09T12:16:53.967Z,39.57
2022-08-09T12:17:58.152Z,40.20
2022-08-09T12:19:00.313Z,40.74
2022-08-09T12:20:22.874Z,40.87
2022-08-09T12:21:38.806Z,41.76
2022-08-09T12:22:56.138Z,42.41
2022-08-09T12:24:08.670Z,42.14
2022-08-09T12:25:14.882Z,41.47
2022-08-09T12:26:19.633Z,42.00
2022-08-09T12:28:58.675Z,42.28
2022-08-09T12:29:13.568Z,42.11
2022-08-09T12:30:36.628Z,41.93
2022-08-09T12:31:31.074Z,42.22
2022-08-09T12:33:01.970Z,42.24
2022-08-09T12:34:03.775Z,43.08
2022-08-09T12:35:10.893Z,42.38
2022-08-09T12:36:31.934Z,41.81
2022-08-09T12:37:49.862Z,42.07
2022-08-09T12:38:54.746Z,42.48
2022-08-09T12:40:07.529Z,42.58
2022-08-09T12:41:10.515Z,41.77
2022-08-09T12:42:16.185Z,40.91
2022-08-09T12:43:20.919Z,40.19
2022-08-09T12:44:46.360Z,39.67
2022-08-09T12:45:59.411Z,39.80
2022-08-09T12:47:02.739Z,39.44
2022-08-09T12:48:20.137Z,39.76
2022-08-09T12:49:33.659Z,39.01
2022-08-09T12:50:36.425Z,38.85
2022-08-09T12:52:00.169Z,38.22
2022-08-09T12:53:08.734Z,37.20
2022-08-09T12:54:11.649Z,38.39
2022-08-09T12:56:14.626Z,37.40
2022-08-09T12:56:54.665Z,35.63
2022-08-09T12:57:59.095Z,34.67
2022-08-09T12:59:17.654Z,34.88
2022-08-09T13:00:35.356Z,36.13
2022-08-09T13:01:48.612Z,36.17
2022-08-09T13:02:55.613Z,34.85
2022-08-09T13:04:04.466Z,34.13
2022-08-09T13:05:06.222Z,34.81
2022-08-09T13:06:13.477Z,35.23
2022-08-09T13:07:19.923Z,35.81
2022-08-09T13:08:40.063Z,35.33
2022-08-09T13:09:55.884Z,34.83
2022-08-09T13:11:22.731Z,34.41
2022-08-09T13:12:24.427Z,33.82
2022-08-09T13:14:38.594Z,35.11
2022-08-09T13:15:09.813Z,34.62
2022-08-09T13:16:15.812Z,35.05
2022-08-09T13:17:25.680Z,35.49
2022-08-09T13:18:48.107Z,35.40
2022-08-09T13:20:08.284Z,36.57
2022-08-09T13:22:37.481Z,35.35
2022-08-09T13:23:00.469Z,34.69
2022-08-09T13:24:16.912Z,34.96
2022-08-09T13:25:53.432Z,34.10
2022-08-09T13:26:58.442Z,34.46
2022-08-09T13:28:09.798Z,34.73
2022-08-09T13:29:15.098Z,34.41
2022-08-09T13:30:50.819Z,34.69
2022-08-09T13:32:26.501Z,35.00
2022-08-09T13:33:35.946Z,36.16
2022-08-09T13:34:52.302Z,35.79
2022-08-09T13:36:38.601Z,35.94
2022-08-09T13:37:51.272Z,36.10
2022-08-09T13:38:56.734Z,34.51
2022-08-09T13:41:51.858Z,34.45
2022-08-09T13:41:58.177Z,33.61
2022-08-09T13:42:46.313Z,33.20
2022-08-09T13:43:48.440Z,33.31
2022-08-09T13:44:50.479Z,33.90
2022-08-09T13:46:44.821Z,33.69
2022-08-09T13:47:31.510Z,33.44
2022-08-09T13:48:38.888Z,33.50
2022-08-09T13:49:57.360Z,33.61
2022-08-09T13:51:02.355Z,33.53
2022-08-09T13:52:05.618Z,33.47
2022-08-09T13:53:11.380Z,33.30
2022-08-09T13:54:13.519Z,32.85
2022-08-09T13:55:17.724Z,32.22
2022-08-09T13:56:25.540Z,32.55
2022-08-09T13:57:37.040Z,32.75
2022-08-09T13:58:42.462Z,33.19
2022-08-09T13:59:44.118Z,33.96
2022-08-09T14:00:46.253Z,34.08
2022-08-09T14:02:02.059Z,34.53
2022-08-09T14:03:58.125Z,33.83
2022-08-09T14:04:27.665Z,33.16
2022-08-09T14:05:58.604Z,32.81
2022-08-09T14:06:56.602Z,30.82
2022-08-09T14:08:01.436Z,31.27
2022-08-09T14:09:05.329Z,31.31
2022-08-09T14:10:08.103Z,31.34
2022-08-09T14:11:20.140Z,31.76
2022-08-09T14:12:21.788Z,32.56
2022-08-09T14:14:15.379Z,32.81
2022-08-09T14:14:47.400Z,32.04
2022-08-09T14:16:09.050Z,32.02
2022-08-09T14:17:13.057Z,32.49
2022-08-09T14:18:29.588Z,32.34
2022-08-09T14:19:33.291Z,32.70
2022-08-09T14:20:35.523Z,32.78
2022-08-09T14:21:37.291Z,32.91
2022-08-09T14:22:38.987Z,33.92
2022-08-09T14:23:54.576Z,33.97
2022-08-09T14:24:58.437Z,35.02
2022-08-09T14:26:01.722Z,34.90
2022-08-09T14:27:19.928Z,34.98
2022-08-09T14:28:22.749Z,33.93
2022-08-09T14:30:35.341Z,33.52
2022-08-09T14:30:50.561Z,33.09
2022-08-09T14:31:53.966Z,33.56
2022-08-09T14:32:56.171Z,33.60
2022-08-09T14:33:59.459Z,33.61
2022-08-09T14:35:07.136Z,33.67
2022-08-09T14:36:20.828Z,33.65
2022-08-09T14:37:28.239Z,33.36
2022-08-09T14:38:30.363Z,33.14
2022-08-09T14:39:47.536Z,33.23
2022-08-09T14:41:01.593Z,32.98
2022-08-09T14:42:29.120Z,32.48
2022-08-09T14:43:47.318Z,32.79
2022-08-09T14:45:00.116Z,33.09
2022-08-09T14:46:54.999Z,33.36
2022-08-09T14:47:42.942Z,33.76
2022-08-09T14:48:45.833Z,34.24
2022-08-09T14:50:01.980Z,34.47
2022-08-09T14:51:04.247Z,34.68
2022-08-09T14:52:07.330Z,34.88
2022-08-09T14:53:12.197Z,35.16
2022-08-09T14:54:16.740Z,35.44
2022-08-09T14:55:24.008Z,35.48
2022-08-09T14:56:26.917Z,35.67
2022-08-09T14:57:31.788Z,36.01
2022-08-09T14:58:45.420Z,36.34
2022-08-09T14:59:48.821Z,36.69
2022-08-09T15:00:52.138Z,36.85
2022-08-09T15:01:54.261Z,36.97
2022-08-09T15:02:55.949Z,37.37
2022-08-09T15:04:00.155Z,37.88
2022-08-09T15:05:06.945Z,38.59
2022-08-09T15:06:11.182Z,38.75
2022-08-09T15:07:12.936Z,38.86
2022-08-09T15:08:16.331Z,39.17
2022-08-09T15:10:03.428Z,39.91
2022-08-09T15:10:43.526Z,40.77
2022-08-09T15:12:03.997Z,41.59
2022-08-09T15:13:08.976Z,41.40
2022-08-09T15:14:13.461Z,40.72
2022-08-09T15:15:15.773Z,40.10
2022-08-09T15:16:17.797Z,39.65
2022-08-09T15:17:19.440Z,39.67
2022-08-09T15:18:21.131Z,39.65